sensor_id;sensor_type;location;lat;lon;timestamp;temperature;humidity
18880;DHT22;9572;52.378;13.404;2023-11-22T00:02:24;1.20;99.90
18880;DHT22;9572;52.378;13.404;2023-11-22T00:04:55;1.20;99.90
18880;DHT22;9572;52.378;13.404;2023-11-22T00:07:27;1.10;99.90
18880;DHT22;9572;52.378;13.404;2023-11-22T00:09:54;1.10;99.90
18880;DHT22;9572;52.378;13.404;2023-11-22T00:12:28;1.00;99.90
18880;DHT22;9572;52.378;13.404;2023-11-22T00:15:02;1.10;99.90
18880;DHT22;9572;52.378;13.404;2023-11-22T00:17:37;1.10;99.90
18880;DHT22;9572;52.378;13.404;2023-11-22T00:20:05;1.10;99.90
18880;DHT22;9572;52.378;13.404;2023-11-22T00:22:34;1.10;99.90
18880;DHT22;9572;52.378;13.404;2023-11-22T00:25:07;1.10;99.90
18880;DHT22;9572;52.378;13.404;2023-11-22T00:27:40;1.20;99.90
18880;DHT22;9572;52.378;13.404;2023-11-22T00:30:08;1.20;99.90
18880;DHT22;9572;52.378;13.404;2023-11-22T00:32:35;1.30;99.90
18880;DHT22;9572;52.378;13.404;2023-11-22T00:35:06;1.20;99.90
18880;DHT22;9572;52.378;13.404;2023-11-22T00:37:33;1.20;99.90
18880;DHT22;9572;52.378;13.404;2023-11-22T00:40:07;1.20;99.90
18880;DHT22;9572;52.378;13.404;2023-11-22T00:42:39;1.10;99.90
18880;DHT22;9572;52.378;13.404;2023-11-22T00:45:08;1.20;99.90
18880;DHT22;9572;52.378;13.404;2023-11-22T00:47:36;1.10;99.90
18880;DHT22;9572;52.378;13.404;2023-11-22T00:50:07;1.10;99.90
18880;DHT22;9572;52.378;13.404;2023-11-22T00:52:34;1.10;99.90
18880;DHT22;9572;52.378;13.404;2023-11-22T00:55:10;1.00;99.90
18880;DHT22;9572;52.378;13.404;2023-11-22T00:57:39;1.00;99.90
18880;DHT22;9572;52.378;13.404;2023-11-22T01:00:07;1.00;99.90
18880;DHT22;9572;52.378;13.404;2023-11-22T01:02:36;1.10;99.90
18880;DHT22;9572;52.378;13.404;2023-11-22T01:05:05;1.10;99.90
18880;DHT22;9572;52.378;13.404;2023-11-22T01:07:35;1.00;99.90
18880;DHT22;9572;52.378;13.404;2023-11-22T01:10:02;1.10;99.90
18880;DHT22;9572;52.378;13.404;2023-11-22T01:12:53;1.10;99.90
18880;DHT22;9572;52.378;13.404;2023-11-22T01:15:24;1.10;99.90
18880;DHT22;9572;52.378;13.404;2023-11-22T01:18:05;1.10;99.90
18880;DHT22;9572;52.378;13.404;2023-11-22T01:20:36;1.10;99.90
18880;DHT22;9572;52.378;13.404;2023-11-22T01:23:04;1.10;99.90
18880;DHT22;9572;52.378;13.404;2023-11-22T01:25:33;1.10;99.90
18880;DHT22;9572;52.378;13.404;2023-11-22T01:28:03;1.10;99.90
18880;DHT22;9572;52.378;13.404;2023-11-22T01:30:36;1.10;99.90
18880;DHT22;9572;52.378;13.404;2023-11-22T01:33:04;1.10;99.90
18880;DHT22;9572;52.378;13.404;2023-11-22T01:35:34;1.10;99.90
18880;DHT22;9572;52.378;13.404;2023-11-22T01:38:05;1.00;99.90
18880;DHT22;9572;52.378;13.404;2023-11-22T01:40:34;0.90;99.90
18880;DHT22;9572;52.378;13.404;2023-11-22T01:43:13;0.90;99.90
18880;DHT22;9572;52.378;13.404;2023-11-22T01:45:46;0.90;99.90
18880;DHT22;9572;52.378;13.404;2023-11-22T01:48:14;0.80;99.90
18880;DHT22;9572;52.378;13.404;2023-11-22T01:50:46;0.70;99.90
18880;DHT22;9572;52.378;13.404;2023-11-22T01:53:14;0.70;99.90
18880;DHT22;9572;52.378;13.404;2023-11-22T01:55:44;0.60;99.90
18880;DHT22;9572;52.378;13.404;2023-11-22T01:58:30;0.60;99.90
18880;DHT22;9572;52.378;13.404;2023-11-22T02:00:58;0.60;99.90
18880;DHT22;9572;52.378;13.404;2023-11-22T02:03:26;0.70;99.90
18880;DHT22;9572;52.378;13.404;2023-11-22T02:05:53;0.60;99.90
18880;DHT22;9572;52.378;13.404;2023-11-22T02:08:20;0.50;99.90
18880;DHT22;9572;52.378;13.404;2023-11-22T02:10:57;0.50;99.90
18880;DHT22;9572;52.378;13.404;2023-11-22T02:16:09;0.60;99.90
18880;DHT22;9572;52.378;13.404;2023-11-22T02:18:36;0.70;99.90
18880;DHT22;9572;52.378;13.404;2023-11-22T02:21:04;0.60;99.90
18880;DHT22;9572;52.378;13.404;2023-11-22T02:23:39;0.60;99.90
18880;DHT22;9572;52.378;13.404;2023-11-22T02:26:08;0.60;99.90
18880;DHT22;9572;52.378;13.404;2023-11-22T02:28:35;0.50;99.90
18880;DHT22;9572;52.378;13.404;2023-11-22T02:31:04;0.50;99.90
18880;DHT22;9572;52.378;13.404;2023-11-22T02:33:35;0.40;99.90
18880;DHT22;9572;52.378;13.404;2023-11-22T02:36:06;0.40;99.90
18880;DHT22;9572;52.378;13.404;2023-11-22T02:38:39;0.40;99.90
18880;DHT22;9572;52.378;13.404;2023-11-22T02:41:06;0.40;99.90
18880;DHT22;9572;52.378;13.404;2023-11-22T02:43:34;0.30;99.90
18880;DHT22;9572;52.378;13.404;2023-11-22T02:46:02;0.30;99.90
18880;DHT22;9572;52.378;13.404;2023-11-22T02:48:30;0.20;99.90
18880;DHT22;9572;52.378;13.404;2023-11-22T02:50:57;0.20;99.90
18880;DHT22;9572;52.378;13.404;2023-11-22T02:53:24;0.10;99.90
18880;DHT22;9572;52.378;13.404;2023-11-22T02:55:53;0.10;99.90
18880;DHT22;9572;52.378;13.404;2023-11-22T02:58:21;0.00;99.90
18880;DHT22;9572;52.378;13.404;2023-11-22T03:00:48;0.00;99.90
18880;DHT22;9572;52.378;13.404;2023-11-22T03:03:15;0.00;99.90
18880;DHT22;9572;52.378;13.404;2023-11-22T03:05:43;-0.10;99.90
18880;DHT22;9572;52.378;13.404;2023-11-22T03:08:10;-0.10;99.90
18880;DHT22;9572;52.378;13.404;2023-11-22T03:10:38;-0.10;99.90
18880;DHT22;9572;52.378;13.404;2023-11-22T03:13:07;-0.10;99.90
18880;DHT22;9572;52.378;13.404;2023-11-22T03:15:35;-0.10;99.90
18880;DHT22;9572;52.378;13.404;2023-11-22T03:18:02;-0.10;99.90
18880;DHT22;9572;52.378;13.404;2023-11-22T03:20:31;-0.10;99.90
18880;DHT22;9572;52.378;13.404;2023-11-22T03:22:59;-0.10;99.90
18880;DHT22;9572;52.378;13.404;2023-11-22T03:25:26;-0.20;99.90
18880;DHT22;9572;52.378;13.404;2023-11-22T03:27:54;-0.20;99.90
18880;DHT22;9572;52.378;13.404;2023-11-22T03:30:23;-0.30;99.90
18880;DHT22;9572;52.378;13.404;2023-11-22T03:32:50;-0.30;99.90
18880;DHT22;9572;52.378;13.404;2023-11-22T03:35:17;-0.30;99.90
18880;DHT22;9572;52.378;13.404;2023-11-22T03:37:44;-0.30;99.90
18880;DHT22;9572;52.378;13.404;2023-11-22T03:40:12;-0.40;99.90
18880;DHT22;9572;52.378;13.404;2023-11-22T03:42:41;-0.40;99.90
18880;DHT22;9572;52.378;13.404;2023-11-22T03:45:08;-0.40;99.90
18880;DHT22;9572;52.378;13.404;2023-11-22T03:47:39;-0.40;99.90
18880;DHT22;9572;52.378;13.404;2023-11-22T03:50:07;-0.40;99.90
18880;DHT22;9572;52.378;13.404;2023-11-22T03:52:35;-0.50;99.90
18880;DHT22;9572;52.378;13.404;2023-11-22T03:55:02;-0.40;99.90
18880;DHT22;9572;52.378;13.404;2023-11-22T03:57:30;-0.50;99.90
18880;DHT22;9572;52.378;13.404;2023-11-22T03:59:57;-0.40;99.90
18880;DHT22;9572;52.378;13.404;2023-11-22T04:02:25;-0.50;99.90
18880;DHT22;9572;52.378;13.404;2023-11-22T04:04:55;-0.40;99.90
18880;DHT22;9572;52.378;13.404;2023-11-22T04:07:23;-0.40;99.90
18880;DHT22;9572;52.378;13.404;2023-11-22T04:09:50;-0.50;99.90
18880;DHT22;9572;52.378;13.404;2023-11-22T04:12:17;-0.40;99.90
18880;DHT22;9572;52.378;13.404;2023-11-22T04:14:44;-0.40;99.90
18880;DHT22;9572;52.378;13.404;2023-11-22T04:17:11;-0.40;99.90
18880;DHT22;9572;52.378;13.404;2023-11-22T04:19:38;-0.40;99.90
18880;DHT22;9572;52.378;13.404;2023-11-22T04:22:07;-0.40;99.90
18880;DHT22;9572;52.378;13.404;2023-11-22T04:24:34;-0.40;99.90
18880;DHT22;9572;52.378;13.404;2023-11-22T04:27:01;-0.40;99.90
18880;DHT22;9572;52.378;13.404;2023-11-22T04:29:28;-0.50;99.90
18880;DHT22;9572;52.378;13.404;2023-11-22T04:31:55;-0.50;99.90
18880;DHT22;9572;52.378;13.404;2023-11-22T04:34:23;-0.50;99.90
18880;DHT22;9572;52.378;13.404;2023-11-22T04:36:50;-0.50;99.90
18880;DHT22;9572;52.378;13.404;2023-11-22T04:39:18;-0.50;99.90
18880;DHT22;9572;52.378;13.404;2023-11-22T04:41:45;-0.50;99.90
18880;DHT22;9572;52.378;13.404;2023-11-22T04:44:13;-0.50;99.90
18880;DHT22;9572;52.378;13.404;2023-11-22T04:46:40;-0.50;99.90
18880;DHT22;9572;52.378;13.404;2023-11-22T04:49:07;-0.50;99.90
18880;DHT22;9572;52.378;13.404;2023-11-22T04:51:34;-0.50;99.90
18880;DHT22;9572;52.378;13.404;2023-11-22T04:54:01;-0.60;99.90
18880;DHT22;9572;52.378;13.404;2023-11-22T04:56:30;-0.60;99.90
18880;DHT22;9572;52.378;13.404;2023-11-22T04:58:56;-0.60;99.90
18880;DHT22;9572;52.378;13.404;2023-11-22T05:01:24;-0.60;99.90
18880;DHT22;9572;52.378;13.404;2023-11-22T05:03:51;-0.60;99.90
18880;DHT22;9572;52.378;13.404;2023-11-22T05:06:18;-0.70;99.90
18880;DHT22;9572;52.378;13.404;2023-11-22T05:08:45;-0.60;99.90
18880;DHT22;9572;52.378;13.404;2023-11-22T05:11:12;-0.60;99.90
18880;DHT22;9572;52.378;13.404;2023-11-22T05:13:42;-0.60;99.90
18880;DHT22;9572;52.378;13.404;2023-11-22T05:16:09;-0.70;99.90
18880;DHT22;9572;52.378;13.404;2023-11-22T05:18:36;-0.70;99.90
18880;DHT22;9572;52.378;13.404;2023-11-22T05:21:03;-0.60;99.90
18880;DHT22;9572;52.378;13.404;2023-11-22T05:23:31;-0.60;99.90
18880;DHT22;9572;52.378;13.404;2023-11-22T05:25:58;-0.70;99.90
18880;DHT22;9572;52.378;13.404;2023-11-22T05:28:26;-0.70;99.90
18880;DHT22;9572;52.378;13.404;2023-11-22T05:30:54;-0.70;99.90
18880;DHT22;9572;52.378;13.404;2023-11-22T05:33:22;-0.70;99.90
18880;DHT22;9572;52.378;13.404;2023-11-22T05:35:49;-0.70;99.90
18880;DHT22;9572;52.378;13.404;2023-11-22T05:38:16;-0.70;99.90
18880;DHT22;9572;52.378;13.404;2023-11-22T05:40:43;-0.70;99.90
18880;DHT22;9572;52.378;13.404;2023-11-22T05:43:11;-0.60;99.90
18880;DHT22;9572;52.378;13.404;2023-11-22T05:45:41;-0.70;99.90
18880;DHT22;9572;52.378;13.404;2023-11-22T05:51:14;-0.70;99.90
18880;DHT22;9572;52.378;13.404;2023-11-22T05:53:41;-0.80;99.90
18880;DHT22;9572;52.378;13.404;2023-11-22T05:56:09;-0.70;99.90
18880;DHT22;9572;52.378;13.404;2023-11-22T05:58:36;-0.80;99.90
18880;DHT22;9572;52.378;13.404;2023-11-22T06:01:04;-0.80;99.90
18880;DHT22;9572;52.378;13.404;2023-11-22T06:03:32;-0.80;99.90
18880;DHT22;9572;52.378;13.404;2023-11-22T06:05:59;-0.90;99.90
18880;DHT22;9572;52.378;13.404;2023-11-22T06:08:28;-0.90;99.90
18880;DHT22;9572;52.378;13.404;2023-11-22T06:10:56;-0.90;99.90
18880;DHT22;9572;52.378;13.404;2023-11-22T06:13:25;-0.90;99.90
18880;DHT22;9572;52.378;13.404;2023-11-22T06:15:52;-0.90;99.90
18880;DHT22;9572;52.378;13.404;2023-11-22T06:18:19;-1.00;99.90
18880;DHT22;9572;52.378;13.404;2023-11-22T06:20:46;-1.00;99.90
18880;DHT22;9572;52.378;13.404;2023-11-22T06:23:14;-1.00;99.90
18880;DHT22;9572;52.378;13.404;2023-11-22T06:25:50;-0.90;99.90
18880;DHT22;9572;52.378;13.404;2023-11-22T06:28:17;-0.90;99.90
18880;DHT22;9572;52.378;13.404;2023-11-22T06:30:44;-1.00;99.90
18880;DHT22;9572;52.378;13.404;2023-11-22T06:33:16;-1.00;99.90
18880;DHT22;9572;52.378;13.404;2023-11-22T06:35:49;-1.10;99.90
18880;DHT22;9572;52.378;13.404;2023-11-22T06:38:16;-1.10;99.90
18880;DHT22;9572;52.378;13.404;2023-11-22T06:40:49;-1.10;99.90
18880;DHT22;9572;52.378;13.404;2023-11-22T06:43:16;-1.10;99.90
18880;DHT22;9572;52.378;13.404;2023-11-22T06:46:00;-1.10;99.90
18880;DHT22;9572;52.378;13.404;2023-11-22T06:48:28;-1.10;99.90
18880;DHT22;9572;52.378;13.404;2023-11-22T06:50:55;-1.10;99.90
18880;DHT22;9572;52.378;13.404;2023-11-22T06:53:25;-1.00;99.90
18880;DHT22;9572;52.378;13.404;2023-11-22T06:56:08;-1.00;99.90
18880;DHT22;9572;52.378;13.404;2023-11-22T06:58:35;-1.10;99.90
18880;DHT22;9572;52.378;13.404;2023-11-22T07:01:08;-1.10;99.90
18880;DHT22;9572;52.378;13.404;2023-11-22T07:03:36;-1.10;99.90
18880;DHT22;9572;52.378;13.404;2023-11-22T07:06:05;-1.00;99.90
18880;DHT22;9572;52.378;13.404;2023-11-22T07:08:36;-1.00;99.90
18880;DHT22;9572;52.378;13.404;2023-11-22T07:11:31;-1.00;99.90
18880;DHT22;9572;52.378;13.404;2023-11-22T07:13:59;-1.00;99.90
18880;DHT22;9572;52.378;13.404;2023-11-22T07:16:28;-1.00;99.90
18880;DHT22;9572;52.378;13.404;2023-11-22T07:18:56;-0.90;99.90
18880;DHT22;9572;52.378;13.404;2023-11-22T07:21:28;-0.90;99.90
18880;DHT22;9572;52.378;13.404;2023-11-22T07:23:59;-0.90;99.90
18880;DHT22;9572;52.378;13.404;2023-11-22T07:26:32;-0.80;99.90
18880;DHT22;9572;52.378;13.404;2023-11-22T07:29:20;-0.80;99.90
18880;DHT22;9572;52.378;13.404;2023-11-22T07:31:52;-0.80;99.90
18880;DHT22;9572;52.378;13.404;2023-11-22T07:34:28;-0.80;99.90
18880;DHT22;9572;52.378;13.404;2023-11-22T07:36:55;-0.70;99.90
18880;DHT22;9572;52.378;13.404;2023-11-22T07:39:28;-0.70;99.90
18880;DHT22;9572;52.378;13.404;2023-11-22T07:42:11;-0.70;99.90
18880;DHT22;9572;52.378;13.404;2023-11-22T07:44:38;-0.70;99.90
18880;DHT22;9572;52.378;13.404;2023-11-22T07:47:09;-0.70;99.90
18880;DHT22;9572;52.378;13.404;2023-11-22T07:49:38;-0.60;99.90
18880;DHT22;9572;52.378;13.404;2023-11-22T07:52:07;-0.60;99.90
18880;DHT22;9572;52.378;13.404;2023-11-22T07:54:39;-0.60;99.90
18880;DHT22;9572;52.378;13.404;2023-11-22T07:57:06;-0.60;99.90
18880;DHT22;9572;52.378;13.404;2023-11-22T08:00:01;-0.50;99.90
18880;DHT22;9572;52.378;13.404;2023-11-22T08:02:42;-0.40;99.90
18880;DHT22;9572;52.378;13.404;2023-11-22T08:05:23;-0.40;99.90
18880;DHT22;9572;52.378;13.404;2023-11-22T08:07:55;-0.30;99.90
18880;DHT22;9572;52.378;13.404;2023-11-22T08:10:28;-0.30;99.90
18880;DHT22;9572;52.378;13.404;2023-11-22T08:12:59;-0.20;99.90
18880;DHT22;9572;52.378;13.404;2023-11-22T08:15:31;-0.20;99.90
18880;DHT22;9572;52.378;13.404;2023-11-22T08:17:58;-0.20;99.90
18880;DHT22;9572;52.378;13.404;2023-11-22T08:20:27;-0.20;99.90
18880;DHT22;9572;52.378;13.404;2023-11-22T08:22:55;-0.10;99.90
18880;DHT22;9572;52.378;13.404;2023-11-22T08:25:25;-0.30;99.90
18880;DHT22;9572;52.378;13.404;2023-11-22T08:27:57;-0.30;99.90
18880;DHT22;9572;52.378;13.404;2023-11-22T08:30:43;-0.40;99.90
18880;DHT22;9572;52.378;13.404;2023-11-22T08:33:15;-0.30;99.90
18880;DHT22;9572;52.378;13.404;2023-11-22T08:35:57;-0.20;99.90
18880;DHT22;9572;52.378;13.404;2023-11-22T08:38:27;-0.30;99.90
18880;DHT22;9572;52.378;13.404;2023-11-22T08:41:08;-0.30;99.90
18880;DHT22;9572;52.378;13.404;2023-11-22T08:43:38;-0.30;99.90
18880;DHT22;9572;52.378;13.404;2023-11-22T08:46:09;-0.30;99.90
18880;DHT22;9572;52.378;13.404;2023-11-22T08:48:36;-0.20;99.90
18880;DHT22;9572;52.378;13.404;2023-11-22T08:51:05;-0.20;99.90
18880;DHT22;9572;52.378;13.404;2023-11-22T08:53:37;-0.20;99.90
18880;DHT22;9572;52.378;13.404;2023-11-22T08:56:10;-0.20;99.90
18880;DHT22;9572;52.378;13.404;2023-11-22T08:58:48;-0.20;99.90
18880;DHT22;9572;52.378;13.404;2023-11-22T09:01:20;-0.10;99.90
18880;DHT22;9572;52.378;13.404;2023-11-22T09:03:47;0.00;99.90
18880;DHT22;9572;52.378;13.404;2023-11-22T09:06:18;-0.10;99.90
18880;DHT22;9572;52.378;13.404;2023-11-22T09:08:50;0.00;99.90
18880;DHT22;9572;52.378;13.404;2023-11-22T09:11:20;0.00;99.90
18880;DHT22;9572;52.378;13.404;2023-11-22T09:13:48;-0.10;99.90
18880;DHT22;9572;52.378;13.404;2023-11-22T09:16:21;-0.10;99.90
18880;DHT22;9572;52.378;13.404;2023-11-22T09:19:09;0.00;99.90
18880;DHT22;9572;52.378;13.404;2023-11-22T09:21:39;0.00;99.90
18880;DHT22;9572;52.378;13.404;2023-11-22T09:24:08;0.00;99.90
18880;DHT22;9572;52.378;13.404;2023-11-22T09:26:51;0.10;99.90
18880;DHT22;9572;52.378;13.404;2023-11-22T09:29:29;0.10;99.90
18880;DHT22;9572;52.378;13.404;2023-11-22T09:35:41;0.20;99.90
18880;DHT22;9572;52.378;13.404;2023-11-22T09:38:38;0.30;99.90
18880;DHT22;9572;52.378;13.404;2023-11-22T09:41:05;0.30;99.90
18880;DHT22;9572;52.378;13.404;2023-11-22T09:43:49;0.30;99.90
18880;DHT22;9572;52.378;13.404;2023-11-22T09:46:17;0.40;99.90
18880;DHT22;9572;52.378;13.404;2023-11-22T09:48:48;0.50;99.90
18880;DHT22;9572;52.378;13.404;2023-11-22T09:51:23;0.40;99.90
18880;DHT22;9572;52.378;13.404;2023-11-22T09:53:59;0.40;99.90
18880;DHT22;9572;52.378;13.404;2023-11-22T09:56:30;0.50;99.90
18880;DHT22;9572;52.378;13.404;2023-11-22T09:59:00;0.60;99.90
18880;DHT22;9572;52.378;13.404;2023-11-22T10:01:30;0.60;99.90
18880;DHT22;9572;52.378;13.404;2023-11-22T10:03:59;0.70;99.90
18880;DHT22;9572;52.378;13.404;2023-11-22T10:06:43;0.70;99.90
18880;DHT22;9572;52.378;13.404;2023-11-22T10:09:39;0.80;99.90
18880;DHT22;9572;52.378;13.404;2023-11-22T10:12:12;0.70;99.90
18880;DHT22;9572;52.378;13.404;2023-11-22T10:15:21;0.80;99.90
18880;DHT22;9572;52.378;13.404;2023-11-22T10:18:58;0.80;99.90
18880;DHT22;9572;52.378;13.404;2023-11-22T10:21:39;0.90;99.90
18880;DHT22;9572;52.378;13.404;2023-11-22T10:24:22;0.90;99.90
18880;DHT22;9572;52.378;13.404;2023-11-22T10:26:59;1.00;99.90
18880;DHT22;9572;52.378;13.404;2023-11-22T10:29:28;1.00;99.90
18880;DHT22;9572;52.378;13.404;2023-11-22T10:31:58;1.00;99.90
18880;DHT22;9572;52.378;13.404;2023-11-22T10:34:31;1.10;99.90
18880;DHT22;9572;52.378;13.404;2023-11-22T10:37:08;1.10;99.90
18880;DHT22;9572;52.378;13.404;2023-11-22T10:39:41;1.20;99.90
18880;DHT22;9572;52.378;13.404;2023-11-22T10:42:09;1.20;99.90
18880;DHT22;9572;52.378;13.404;2023-11-22T10:44:38;1.30;99.90
18880;DHT22;9572;52.378;13.404;2023-11-22T10:47:25;1.30;99.90
18880;DHT22;9572;52.378;13.404;2023-11-22T10:50:19;1.40;99.90
18880;DHT22;9572;52.378;13.404;2023-11-22T10:52:52;1.40;99.90
18880;DHT22;9572;52.378;13.404;2023-11-22T10:59:04;1.30;99.90
18880;DHT22;9572;52.378;13.404;2023-11-22T11:01:40;1.40;99.90
18880;DHT22;9572;52.378;13.404;2023-11-22T11:04:33;1.40;99.90
18880;DHT22;9572;52.378;13.404;2023-11-22T11:07:12;1.40;99.90
18880;DHT22;9572;52.378;13.404;2023-11-22T11:09:56;1.40;99.90
18880;DHT22;9572;52.378;13.404;2023-11-22T11:12:28;1.30;99.90
18880;DHT22;9572;52.378;13.404;2023-11-22T11:15:00;1.30;99.90
18880;DHT22;9572;52.378;13.404;2023-11-22T11:17:28;1.40;99.90
18880;DHT22;9572;52.378;13.404;2023-11-22T11:19:57;1.40;99.90
18880;DHT22;9572;52.378;13.404;2023-11-22T11:22:25;1.50;99.90
18880;DHT22;9572;52.378;13.404;2023-11-22T11:25:01;1.60;99.90
18880;DHT22;9572;52.378;13.404;2023-11-22T11:27:29;1.60;99.90
18880;DHT22;9572;52.378;13.404;2023-11-22T11:30:42;1.70;99.90
18880;DHT22;9572;52.378;13.404;2023-11-22T11:33:26;1.70;99.90
18880;DHT22;9572;52.378;13.404;2023-11-22T11:36:00;1.70;99.90
18880;DHT22;9572;52.378;13.404;2023-11-22T11:38:31;1.90;99.90
18880;DHT22;9572;52.378;13.404;2023-11-22T11:41:12;1.80;99.90
18880;DHT22;9572;52.378;13.404;2023-11-22T11:44:03;1.70;99.90
18880;DHT22;9572;52.378;13.404;2023-11-22T11:47:10;1.60;99.90
18880;DHT22;9572;52.378;13.404;2023-11-22T11:49:37;1.70;99.90
18880;DHT22;9572;52.378;13.404;2023-11-22T11:52:06;2.00;99.90
18880;DHT22;9572;52.378;13.404;2023-11-22T11:54:37;2.20;99.90
18880;DHT22;9572;52.378;13.404;2023-11-22T11:57:09;2.30;99.90
18880;DHT22;9572;52.378;13.404;2023-11-22T11:59:38;2.20;99.90
18880;DHT22;9572;52.378;13.404;2023-11-22T12:02:10;2.00;99.90
18880;DHT22;9572;52.378;13.404;2023-11-22T12:05:18;2.10;99.90
18880;DHT22;9572;52.378;13.404;2023-11-22T12:08:06;1.90;99.90
18880;DHT22;9572;52.378;13.404;2023-11-22T12:10:35;1.80;99.90
18880;DHT22;9572;52.378;13.404;2023-11-22T12:13:06;1.90;99.90
18880;DHT22;9572;52.378;13.404;2023-11-22T12:15:39;2.00;99.90
18880;DHT22;9572;52.378;13.404;2023-11-22T12:18:09;2.10;99.90
18880;DHT22;9572;52.378;13.404;2023-11-22T12:20:38;2.20;99.90
18880;DHT22;9572;52.378;13.404;2023-11-22T12:23:05;2.30;99.90
18880;DHT22;9572;52.378;13.404;2023-11-22T12:25:35;2.50;99.90
18880;DHT22;9572;52.378;13.404;2023-11-22T12:28:06;2.50;99.90
18880;DHT22;9572;52.378;13.404;2023-11-22T12:30:39;2.50;99.90
18880;DHT22;9572;52.378;13.404;2023-11-22T12:33:10;2.50;99.90
18880;DHT22;9572;52.378;13.404;2023-11-22T12:35:38;2.40;99.90
18880;DHT22;9572;52.378;13.404;2023-11-22T12:38:07;2.40;99.90
18880;DHT22;9572;52.378;13.404;2023-11-22T12:40:34;2.50;99.90
18880;DHT22;9572;52.378;13.404;2023-11-22T12:43:07;2.50;99.90
18880;DHT22;9572;52.378;13.404;2023-11-22T12:45:38;2.60;99.90
18880;DHT22;9572;52.378;13.404;2023-11-22T12:48:22;2.70;99.90
18880;DHT22;9572;52.378;13.404;2023-11-22T12:50:58;2.80;99.90
18880;DHT22;9572;52.378;13.404;2023-11-22T12:53:27;2.90;99.90
18880;DHT22;9572;52.378;13.404;2023-11-22T12:55:55;2.90;99.90
18880;DHT22;9572;52.378;13.404;2023-11-22T12:58:27;2.80;99.90
18880;DHT22;9572;52.378;13.404;2023-11-22T13:00:55;2.80;99.90
18880;DHT22;9572;52.378;13.404;2023-11-22T13:03:30;2.80;99.90
18880;DHT22;9572;52.378;13.404;2023-11-22T13:05:57;2.70;99.90
18880;DHT22;9572;52.378;13.404;2023-11-22T13:08:28;2.70;99.90
18880;DHT22;9572;52.378;13.404;2023-11-22T13:10:57;2.70;99.90
18880;DHT22;9572;52.378;13.404;2023-11-22T13:13:29;2.60;99.90
18880;DHT22;9572;52.378;13.404;2023-11-22T13:15:57;2.60;99.90
18880;DHT22;9572;52.378;13.404;2023-11-22T13:18:30;2.60;99.90
18880;DHT22;9572;52.378;13.404;2023-11-22T13:20:58;2.60;99.90
18880;DHT22;9572;52.378;13.404;2023-11-22T13:23:29;2.60;99.90
18880;DHT22;9572;52.378;13.404;2023-11-22T13:25:59;2.60;99.90
18880;DHT22;9572;52.378;13.404;2023-11-22T13:28:28;2.70;99.90
18880;DHT22;9572;52.378;13.404;2023-11-22T13:30:55;2.70;99.90
18880;DHT22;9572;52.378;13.404;2023-11-22T13:33:24;2.70;99.90
18880;DHT22;9572;52.378;13.404;2023-11-22T13:36:00;2.60;99.90
18880;DHT22;9572;52.378;13.404;2023-11-22T13:38:28;2.60;99.90
18880;DHT22;9572;52.378;13.404;2023-11-22T13:40:55;2.60;99.90
18880;DHT22;9572;52.378;13.404;2023-11-22T13:43:25;2.50;99.90
18880;DHT22;9572;52.378;13.404;2023-11-22T13:46:10;2.50;99.90
18880;DHT22;9572;52.378;13.404;2023-11-22T13:48:38;2.40;99.90
18880;DHT22;9572;52.378;13.404;2023-11-22T13:51:11;2.40;99.90
18880;DHT22;9572;52.378;13.404;2023-11-22T13:53:38;2.40;99.90
18880;DHT22;9572;52.378;13.404;2023-11-22T13:56:09;2.50;99.90
18880;DHT22;9572;52.378;13.404;2023-11-22T13:58:36;2.50;99.90
18880;DHT22;9572;52.378;13.404;2023-11-22T14:01:06;2.50;99.90
18880;DHT22;9572;52.378;13.404;2023-11-22T14:03:39;2.40;99.90
18880;DHT22;9572;52.378;13.404;2023-11-22T14:06:10;2.40;99.90
18880;DHT22;9572;52.378;13.404;2023-11-22T14:08:39;2.50;99.90
18880;DHT22;9572;52.378;13.404;2023-11-22T14:11:07;2.30;99.90
18880;DHT22;9572;52.378;13.404;2023-11-22T14:13:35;2.30;99.90
18880;DHT22;9572;52.378;13.404;2023-11-22T14:16:06;2.20;99.90
18880;DHT22;9572;52.378;13.404;2023-11-22T14:18:35;2.20;99.90
18880;DHT22;9572;52.378;13.404;2023-11-22T14:21:05;2.20;99.90
18880;DHT22;9572;52.378;13.404;2023-11-22T14:23:41;2.10;99.90
18880;DHT22;9572;52.378;13.404;2023-11-22T14:26:09;2.10;99.90
18880;DHT22;9572;52.378;13.404;2023-11-22T14:28:37;2.10;99.90
18880;DHT22;9572;52.378;13.404;2023-11-22T14:31:05;2.00;99.90
18880;DHT22;9572;52.378;13.404;2023-11-22T14:33:34;2.10;99.90
18880;DHT22;9572;52.378;13.404;2023-11-22T14:36:07;2.10;99.90
18880;DHT22;9572;52.378;13.404;2023-11-22T14:38:34;2.00;99.90
18880;DHT22;9572;52.378;13.404;2023-11-22T14:41:09;1.90;99.90
18880;DHT22;9572;52.378;13.404;2023-11-22T14:43:38;1.80;99.90
18880;DHT22;9572;52.378;13.404;2023-11-22T14:46:06;1.70;99.90
18880;DHT22;9572;52.378;13.404;2023-11-22T14:48:34;1.70;99.90
18880;DHT22;9572;52.378;13.404;2023-11-22T14:51:05;1.70;99.90
18880;DHT22;9572;52.378;13.404;2023-11-22T14:53:39;1.60;99.90
18880;DHT22;9572;52.378;13.404;2023-11-22T14:56:24;1.60;99.90
18880;DHT22;9572;52.378;13.404;2023-11-22T14:58:55;1.50;99.90
18880;DHT22;9572;52.378;13.404;2023-11-22T15:01:25;1.50;99.90
18880;DHT22;9572;52.378;13.404;2023-11-22T15:03:59;1.50;99.90
18880;DHT22;9572;52.378;13.404;2023-11-22T15:06:26;1.50;99.90
18880;DHT22;9572;52.378;13.404;2023-11-22T15:08:58;1.50;99.90
18880;DHT22;9572;52.378;13.404;2023-11-22T15:11:31;1.50;99.90
18880;DHT22;9572;52.378;13.404;2023-11-22T15:13:58;1.40;99.90
18880;DHT22;9572;52.378;13.404;2023-11-22T15:16:25;1.40;99.90
18880;DHT22;9572;52.378;13.404;2023-11-22T15:18:56;1.40;99.90
18880;DHT22;9572;52.378;13.404;2023-11-22T15:21:25;1.40;99.90
18880;DHT22;9572;52.378;13.404;2023-11-22T15:23:56;1.40;99.90
18880;DHT22;9572;52.378;13.404;2023-11-22T15:26:30;1.40;99.90
18880;DHT22;9572;52.378;13.404;2023-11-22T15:28:58;1.30;99.90
18880;DHT22;9572;52.378;13.404;2023-11-22T15:31:26;1.30;99.90
18880;DHT22;9572;52.378;13.404;2023-11-22T15:33:58;1.30;99.90
18880;DHT22;9572;52.378;13.404;2023-11-22T15:36:28;1.20;99.90
18880;DHT22;9572;52.378;13.404;2023-11-22T15:38:55;1.20;99.90
18880;DHT22;9572;52.378;13.404;2023-11-22T15:41:42;1.20;99.90
18880;DHT22;9572;52.378;13.404;2023-11-22T15:44:16;1.20;99.90
18880;DHT22;9572;52.378;13.404;2023-11-22T15:46:45;1.20;99.90
18880;DHT22;9572;52.378;13.404;2023-11-22T15:49:19;1.20;99.90
18880;DHT22;9572;52.378;13.404;2023-11-22T15:51:49;1.10;99.90
18880;DHT22;9572;52.378;13.404;2023-11-22T15:54:17;1.10;99.90
18880;DHT22;9572;52.378;13.404;2023-11-22T15:56:50;1.10;99.90
18880;DHT22;9572;52.378;13.404;2023-11-22T15:59:17;1.20;99.90
18880;DHT22;9572;52.378;13.404;2023-11-22T16:01:45;1.10;99.90
18880;DHT22;9572;52.378;13.404;2023-11-22T16:04:15;1.20;99.90
18880;DHT22;9572;52.378;13.404;2023-11-22T16:06:45;1.20;99.90
18880;DHT22;9572;52.378;13.404;2023-11-22T16:09:19;1.20;99.90
18880;DHT22;9572;52.378;13.404;2023-11-22T16:12:00;1.20;99.90
18880;DHT22;9572;52.378;13.404;2023-11-22T16:14:28;1.20;99.90
18880;DHT22;9572;52.378;13.404;2023-11-22T16:16:58;1.10;99.90
18880;DHT22;9572;52.378;13.404;2023-11-22T16:19:29;1.10;99.90
18880;DHT22;9572;52.378;13.404;2023-11-22T16:22:09;1.10;99.90